1978 Tropical Cyclone BRENDA (1978095S11120)


IBTrACS version v04r00. Visit IBTrACS website for data access.
Please direct all questions to the IBTrACS Q and A forum

Storm track - Intensity - Wind Radii - Intensity Data - Source Data - All data

Summary Information

Storm ID 1978095S11120
Start Apr 5 00Z
Max Intensity 50 kt (Apr 7 19Z), 990 mb (Apr 7 16Z)
End Apr 14 01Z
ATCF IDs ,SH311978
Track status Best track data.

Storm track plot

Map of storm track

Intensity plots

Map of storm track

Radial wind information

No radial wind information for this storm


Position and Intensity Table

BASIN ISO_TIME_________ NATURE LAT LON WMO WIND WMO PRES USA WIND BOM WIND BOM PRES DS824 WIND DS824 PRES TD9636 WIND NEUMANN WIND NEUMANN PRES
degrees north degrees east kts mb kts kts mb kts mb kts kts mb
SI 1978-04-05 00:00:00 TS -11.00 120.40 25 25
SI 01:00:00 TS -11.04 120.34 20 1007 25 20 1007 25
SI 03:00:00 TS -11.15 120.22 25 20 1006 25
SI 04:00:00 TS -11.20 120.15 20 1006 25 20 1006 25
SI 06:00:00 TS -11.30 120.01 25 23 1005 20 1005 25 20 1005
SI 07:00:00 TS -11.35 119.94 25 1005 25 25 1005 20 1005 25 20 1005
SI 09:00:00 TS -11.42 119.79 25 25 1005 20 1005 25 20 1005
SI 10:00:00 TS -11.45 119.72 25 1005 25 25 1005 20 1005 25 20 1005
SI 12:00:00 TS -11.50 119.56 25 25 1005 20 1005 25 20 1005
SI 13:00:00 TS -11.52 119.48 25 1005 25 25 1005 20 1004 25 20 1004
SI 15:00:00 TS -11.56 119.30 25 25 1005 22 1004 25 22 1004
SI 16:00:00 TS -11.58 119.21 25 1005 25 25 1005 23 1003 25 23 1003
SI 18:00:00 TS -11.60 119.04 25 25 1003 25 1003 25 25 1003
SI 19:00:00 TS -11.62 118.95 25 1003 25 25 1003 25 1003 25 25 1003
SI 21:00:00 TS -11.66 118.76 25 25 1003 25 1003 25 25 1003
SI 22:00:00 TS -11.68 118.66 25 1003 25 25 1003 25 1003 25 25 1003
SI 1978-04-06 00:00:00 TS -11.70 118.48 25 25 1003 25 1003 25 25 1003
SI 01:00:00 TS -11.71 118.40 25 1003 25 25 1003 25 1002 25 25 1002
SI 03:00:00 TS -11.72 118.26 25 25 1002 27 1002 26 25 1002
SI 04:00:00 TS -11.73 118.19 25 1002 25 25 1002 28 1001 26 25 1001
SI 06:00:00 TS -11.75 118.06 25 25 1001 30 1001 27 25 1001
SI 07:00:00 TS -11.76 117.99 25 1001 25 25 1001 30 1000 27 25 1000
SI 09:00:00 TS -11.78 117.86 27 25 1001 30 1000 28 27 1000
SI 10:00:00 TS -11.78 117.79 25 1001 28 25 1001 30 1000 29 28 1000
SI 12:00:00 TS -11.80 117.66 30 25 1000 30 1000 30 30 1000
SI 13:00:00 TS -11.81 117.59 25 1000 30 25 1000 30 999 30 30 999
SI 15:00:00 TS -11.85 117.46 30 28 999 32 999 31 32 999
SI 16:00:00 TS -11.87 117.39 30 999 30 30 999 33 998 31 33 998
SI 18:00:00 TS -11.90 117.25 30 30 998 35 998 32 35 998
SI 19:00:00 TS -11.91 117.18 30 998 30 30 998 35 997 32 35 997
SI 21:00:00 TS -11.95 117.03 32 33 996 37 996 33 35 997
SI 22:00:00 TS -11.97 116.95 35 996 33 35 996 38 996 34 35 996
SI 1978-04-07 00:00:00 TS -12.00 116.78 35 38 995 40 995 35 35 996
SI 01:00:00 TS -12.01 116.71 40 995 35 40 995 40 994 35 35 995
SI 03:00:00 TS -12.05 116.56 35 40 994 40 994 36 37 994
SI 04:00:00 TS -12.07 116.50 40 994 35 40 994 40 993 36 38 994
SI 06:00:00 TS -12.10 116.35 35 40 993 40 993 37 40 993
SI 07:00:00 TS -12.12 116.28 40 993 35 40 993 40 992 37 40 992
SI 09:00:00 TS -12.18 116.13 37 43 992 42 992 38 42 992
SI 10:00:00 TS -12.21 116.05 45 992 38 45 992 43 992 39 43 992
SI 12:00:00 TS -12.28 115.88 40 45 992 45 992 40 45 992
SI 13:00:00 TS -12.31 115.80 45 992 40 45 992 45 991 40 45 991
SI 15:00:00 TS -12.40 115.64 42 45 991 45 991 41 45 991
SI 16:00:00 TS -12.45 115.57 45 991 43 45 991 45 990 41 45 990
SI 18:00:00 TS -12.53 115.42 45 48 990 45 990 42 45 990
SI 19:00:00 TS -12.57 115.34 50 990 45 50 990 45 990 42 45 990
SI 21:00:00 TS -12.65 115.19 45 50 990 45 990 43 45 990
SI 22:00:00 TS -12.69 115.11 50 990 45 50 990 45 990 44 45 990
SI 1978-04-08 00:00:00 TS -12.78 114.96 45 50 990 45 990 45 45 990
SI 01:00:00 TS -12.82 114.89 50 990 45 50 990 45 990 45 45 990
SI 03:00:00 TS -12.90 114.75 45 50 990 45 990 45 45 990
SI 04:00:00 TS -12.95 114.69 50 990 45 50 990 45 990 45 45 990
SI 06:00:00 TS -13.05 114.55 50 45 50 990 45 990 45 45 990
SI 07:00:00 TS -13.12 114.47 50 990 45 50 990 45 990 45 45 990
SI 09:00:00 TS -13.25 114.30 45 50 990 45 990 45 45 990
SI 10:00:00 TS -13.32 114.22 50 990 45 50 990 45 990 45 45 990
SI 12:00:00 TS -13.46 114.08 45 50 990 45 990 45 45 990
SI 13:00:00 TS -13.53 114.01 50 990 45 50 990 45 990 45 45 990
SI 15:00:00 TS -13.68 113.88 45 50 990 45 990 45 45 990
SI 16:00:00 TS -13.75 113.83 50 990 45 50 990 45 990 45 45 990
SI 18:00:00 TS -13.90 113.74 45 50 990 45 990 45 45 990
SI 19:00:00 TS -13.98 113.70 50 990 45 50 990 45 990 45 45 990
SI 21:00:00 TS -14.13 113.64 45 50 990 45 990 45 45 990
SI 22:00:00 TS -14.21 113.63 50 990 45 50 990 45 990 45 45 990
SI 1978-04-09 00:00:00 TS -14.34 113.62 45 50 990 45 990 45 45 990
SI 01:00:00 TS -14.40 113.62 50 990 45 50 990 45 990 45 45 990
SI 03:00:00 TS -14.50 113.64 45 50 990 45 990 45 45 990
SI 04:00:00 TS -14.54 113.65 50 990 45 50 990 45 990 45 45 990
SI 06:00:00 TS -14.62 113.70 45 50 990 45 990 45 45 990
SI 07:00:00 TS -14.66 113.73 50 990 45 50 990 45 990 45 45 990
SI 09:00:00 TS -14.72 113.79 45 50 990 45 990 45 45 990
SI 10:00:00 TS -14.74 113.82 50 990 45 50 990 45 990 45 45 990
SI 12:00:00 TS -14.78 113.89 45 50 990 45 990 45 45 990
SI 13:00:00 TS -14.79 113.93 50 990 45 50 990 45 990 45 45 990
SI 15:00:00 TS -14.80 114.04 45 50 990 45 990 45 45 990
SI 16:00:00 TS -14.80 114.09 50 990 45 50 990 45 990 45 45 990
SI 18:00:00 TS -14.80 114.19 45 50 990 45 990 45 45 990
SI 19:00:00 TS -14.80 114.25 50 990 45 50 990 45 990 45 45 990
SI 21:00:00 TS -14.79 114.37 45 50 990 45 990 45 45 990
SI 22:00:00 TS -14.79 114.44 50 990 45 50 990 45 990 45 45 990
SI 1978-04-10 00:00:00 TS -14.80 114.57 45 50 990 45 990 45 45 990
SI 01:00:00 TS -14.81 114.64 50 990 45 50 990 45 990 44 45 990
SI 03:00:00 TS -14.87 114.80 45 50 990 45 990 43 45 990
SI 04:00:00 TS -14.90 114.88 50 990 45 50 990 45 990 43 45 990
SI 06:00:00 TS -14.98 115.04 45 50 990 45 990 42 45 990
SI 07:00:00 TS -15.02 115.12 50 990 44 50 990 45 990 42 45 990
SI 09:00:00 TS -15.13 115.27 42 50 990 45 991 41 45 990
SI 10:00:00 TS -15.19 115.33 50 991 41 50 991 45 991 40 45 990
SI 12:00:00 TS -15.28 115.47 40 46 991 45 992 40 45 991
SI 13:00:00 TS -15.32 115.54 45 992 40 45 992 44 992 39 44 991
SI 15:00:00 TS -15.39 115.68 40 45 992 42 993 38 42 992
SI 16:00:00 TS -15.42 115.74 45 993 40 45 993 41 993 38 41 992
SI 18:00:00 TS -15.48 115.87 40 45 993 40 994 37 40 993
SI 19:00:00 TS -15.52 115.93 45 994 39 45 994 40 994 37 40 993
SI 21:00:00 TS -15.58 116.04 37 41 994 40 994 36 40 993
SI 22:00:00 TS -15.62 116.10 40 995 36 40 995 40 994 35 40 993
SI 1978-04-11 00:00:00 TS -15.68 116.19 35 40 995 40 995 35 40 994
SI 01:00:00 TS -15.70 116.24 40 995 34 40 995 39 995 34 40 994
SI 03:00:00 TS -15.75 116.35 32 36 995 37 995 33 40 994
SI 04:00:00 TS -15.77 116.40 35 996 31 35 996 36 995 33 40 994
SI 06:00:00 TS -15.80 116.49 30 35 996 35 996 32 40 995
SI 07:00:00 TS -15.82 116.54 35 996 30 35 996 35 996 32 39 995
SI 09:00:00 TS -15.85 116.64 30 31 996 35 996 31 37 995
SI 10:00:00 TS -15.86 116.70 30 997 30 30 997 35 996 30 36 995
SI 12:00:00 TS -15.89 116.79 30 30 997 35 997 30 35 996
SI 13:00:00 TS -15.90 116.85 30 997 30 30 997 34 997 30 35 996
SI 15:00:00 TS -15.90 116.98 30 30 997 32 998 30 35 997
SI 16:00:00 TS -15.90 117.05 30 998 30 30 998 31 998 30 35 997
SI 18:00:00 TS -15.90 117.17 30 30 998 30 999 30 35 998
SI 19:00:00 TS -15.91 117.22 30 999 30 30 999 30 999 30 34 998
SI 21:00:00 TS -15.92 117.33 30 30 999 30 1000 30 32 999
SI 22:00:00 TS -15.93 117.38 30 1000 30 30 1000 30 1000 30 31 999
SI 1978-04-12 00:00:00 TS -15.99 117.47 30 30 1000 30 1001 30 30 1000
SI 01:00:00 TS -16.04 117.52 30 1001 30 30 1001 30 1001 30 29 1000
SI 03:00:00 TS -16.16 117.60 30 30 1001 30 1001 30 27 1000
SI 04:00:00 TS -16.23 117.62 30 1001 30 30 1001 30 1001 30 26 1000
SI 06:00:00 TS -16.39 117.61 30 30 1001 30 1001 30 25 1001
SI 07:00:00 TS -16.46 117.58 30 1001 30 30 1001 29 1001 30 25 1001
SI 09:00:00 TS -16.58 117.50 30 26 1001 27 1001 30 25 1001
SI 10:00:00 TS -16.62 117.44 25 1002 30 25 1002 26 1001 30 25 1001
SI 12:00:00 TS -16.70 117.28 30 25 1002 25 1002 30 25 1001
SI 13:00:00 TS -16.73 117.20 25 1002 30 25 1002 25 1002 29 25 1001
SI 15:00:00 TS -16.76 117.01 30 25 1002 25 1002 28 25 1001
SI 16:00:00 TS -16.78 116.91 25 1002 30 25 1002 25 1002 28 25 1001
SI 18:00:00 TS -16.80 116.68 30 25 1002 25 1003 27 25 1002
SI 19:00:00 TS -16.82 116.56 25 1003 29 25 1003 24 1003 27 25 1002
SI 21:00:00 TS -16.85 116.34 27 25 1003 22 1003 26 25 1002
SI 22:00:00 TS -16.87 116.24 25 1003 26 25 1003 21 1003 25 25 1002
SI 1978-04-13 00:00:00 TS -16.93 116.04 25 25 1003 20 1004 25 25 1003
SI 01:00:00 TS -16.96 115.96 25 1004 25 1004 20 1004 24 1003
SI 03:00:00 TS -17.07 115.70 25 1004 20 1004 22 1003
SI 04:00:00 TS -17.11 115.56 25 1004 25 1004 20 1004 21 1003
SI 06:00:00 TS -17.17 115.26 25 1004 20 1004 20 1004
SI 07:00:00 TS -17.19 115.10 25 1004 25 1004 20 1004 20 1004
SI 09:00:00 TS -17.25 114.77 25 1004 20 1004 20 1004
SI 10:00:00 TS -17.27 114.60 25 1004 25 1004 20 1004 20 1004
SI 12:00:00 TS -17.30 114.26 25 1004 20 1004 20 1004
SI 13:00:00 TS -17.31 114.09 25 1004 25 1004 20 1004 20 1004
SI 15:00:00 TS -17.34 113.77 23 1004 20 1004 20 1004
SI 18:00:00 TS -17.39 113.26 20 1004 20 1005 20 1004
SI 19:00:00 TS -17.41 113.07 20 1005 20 1005 19 1005 20 1004
SI 21:00:00 TS -17.44 112.69 20 1005 17 1005 20 1004
SI 1978-04-14 00:00:00 TS -17.49 112.08 20 1005 15 1006 20 1005
SI 01:00:00 NR -17.50 111.80 20 1006 20 1006

Source Information

Agency Information
USA bsh311978.txt
TOKYO
CMA
HKO
NEWDELHI
REUNION
BOM IDCKMSTM0S.csv:Line=11358:BRENDA
NADI
WELLINGTON
DS824 aus_area.dat:576:BRENDA
TD9636 cons_worldwide_trop_cyclone_18710101-19891231-006:Line=10658
TD9635
NEUMANN tracks.sh:Storm=533:BRENDA:BSH9978:BM491
MLC

All available IBTrACS Data

SEASON BASIN SUBBASIN ISO_TIME_________ NATURE LAT LON WMO WIND WMO PRES WMO AGENCY DIST2LAND LANDFALL IFLAG USA AGENCY USA ATCF_ID USA LAT USA LON USA WIND USA SSHS BOM LAT BOM LON BOM TYPE BOM WIND BOM PRES BOM TNUM BOM CI DS824 LAT DS824 LON DS824 STAGE DS824 WIND DS824 PRES TD9636 LAT TD9636 LON TD9636 STAGE TD9636 WIND NEUMANN LAT NEUMANN LON NEUMANN CLASS NEUMANN WIND NEUMANN PRES STORM SPEED STORM DIR
Year degrees north degrees east kts mb km km degrees north degrees east kts 1 degrees north degrees east kts mb 1 1 degrees north degrees east kts mb degrees north degrees east kts degrees north degrees east kts mb kts degrees
1978 SI WA 1978-04-05 00:00:00 TS -11.00 120.40 79 79 O_________O___ jtwc_sh SH311978 -11.00 120.40 25 -1 -11.00 120.40 1 25 4 230
1978 SI WA 01:00:00 TS -11.04 120.34 20 1007 bom 81 81 P_____O___P___ SH311978 -11.05 120.34 25 -1 -11.00 120.40 20 20 1007 1.00 -11.05 120.33 1 25 5 231
1978 SI WA 03:00:00 TS -11.15 120.22 95 95 P_____P___P___ SH311978 -11.16 120.21 25 -1 -11.13 120.28 20 20 1006 -11.14 120.19 1 25 5 231
1978 SI WA 04:00:00 TS -11.20 120.15 20 1006 bom 109 109 P_____O___P___ SH311978 -11.21 120.14 25 -1 -11.20 120.20 20 20 1006 1.00 -11.19 120.12 1 25 5 233
1978 SI WA 06:00:00 TS -11.30 120.01 124 124 O_____P__OP_O_ jtwc_sh SH311978 -11.30 120.00 25 -1 -11.34 120.00 20 23 1005 -11.30 120.00 TC 20 1005 -11.28 119.98 1 25 -11.30 120.20 TC 20 1005 5 235
1978 SI WA 07:00:00 TS -11.35 119.94 25 1005 bom 127 127 P_____O__PP_P_ SH311978 -11.34 119.92 25 -1 -11.40 119.90 20 25 1005 1.50 -11.34 119.94 TC 20 1005 -11.32 119.90 1 25 -11.34 120.11 TC 20 1005 5 241
1978 SI WA 09:00:00 TS -11.42 119.79 141 141 P_____P__PP_P_ SH311978 -11.41 119.76 25 -1 -11.48 119.76 20 25 1005 -11.41 119.81 TC 20 1005 -11.40 119.75 1 25 -11.41 119.94 TC 20 1005 5 244
1978 SI WA 10:00:00 TS -11.45 119.72 25 1005 bom 155 155 P_____O__PP_P_ SH311978 -11.45 119.68 25 -1 -11.50 119.70 20 25 1005 1.50 -11.44 119.74 TC 20 1005 -11.44 119.67 1 25 -11.44 119.85 TC 20 1005 5 251
1978 SI WA 12:00:00 TS -11.50 119.56 159 159 O_____P__OO_O_ jtwc_sh SH311978 -11.50 119.50 25 -1 -11.50 119.57 20 25 1005 -11.50 119.60 TC 20 1005 -11.50 119.50 1 25 -11.50 119.70 TC 20 1005 5 254
1978 SI WA 13:00:00 TS -11.52 119.48 25 1005 bom 164 164 P_____O__PP_P_ SH311978 -11.52 119.40 25 -1 -11.50 119.50 20 25 1005 1.50 -11.52 119.52 TC 20 1004 -11.53 119.41 1 25 -11.52 119.63 TC 20 1004 5 256
1978 SI WA 15:00:00 TS -11.56 119.30 185 185 P_____P__PP_P_ SH311978 -11.56 119.20 25 -1 -11.57 119.30 20 25 1005 -11.56 119.36 TC 22 1004 -11.58 119.23 1 25 -11.56 119.51 TC 22 1004 5 257
1978 SI WA 16:00:00 TS -11.58 119.21 25 1005 bom 191 191 P_____O__PP_P_ SH311978 -11.57 119.10 25 -1 -11.60 119.20 20 25 1005 1.50 -11.57 119.28 TC 23 1003 -11.60 119.13 1 25 -11.57 119.44 TC 23 1003 5 261
1978 SI WA 18:00:00 TS -11.60 119.04 204 204 O_____P__OP_O_ jtwc_sh SH311978 -11.60 118.90 25 -1 -11.60 119.07 20 25 1003 -11.60 119.10 TC 25 1003 -11.63 118.94 1 25 -11.60 119.30 TC 25 1003 5 261
1978 SI WA 19:00:00 TS -11.62 118.95 25 1003 bom 208 208 P_____O__PP_P_ SH311978 -11.62 118.81 25 -1 -11.60 119.00 20 25 1003 2.00 -11.62 119.00 TC 25 1003 -11.64 118.85 1 25 -11.62 119.21 TC 25 1003 6 259
1978 SI WA 21:00:00 TS -11.66 118.76 222 222 P_____P__PP_P_ SH311978 -11.66 118.64 25 -1 -11.67 118.81 20 25 1003 -11.65 118.79 TC 25 1003 -11.67 118.66 1 25 -11.65 119.01 TC 25 1003 6 258
1978 SI WA 22:00:00 TS -11.68 118.66 25 1003 bom 226 226 P_____O__PP_P_ SH311978 -11.67 118.55 25 -1 -11.70 118.70 20 25 1003 2.00 -11.67 118.69 TC 25 1003 -11.68 118.57 1 25 -11.67 118.90 TC 25 1003 5 261
1978 SI WA 1978-04-06 00:00:00 TS -11.70 118.48 233 233 O_____P__OO_O_ jtwc_sh SH311978 -11.70 118.40 25 -1 -11.71 118.49 20 25 1003 -11.70 118.50 TC 25 1003 -11.70 118.40 1 25 -11.70 118.70 TC 25 1003 5 263
1978 SI WA 01:00:00 TS -11.71 118.40 25 1003 bom 236 236 P_____O__PP_P_ SH311978 -11.70 118.33 25 -1 -11.70 118.40 20 25 1003 2.00 2.00 -11.72 118.42 TC 25 1002 -11.71 118.32 1 25 -11.72 118.61 TC 25 1002 4 264
1978 SI WA 03:00:00 TS -11.72 118.26 240 240 P_____P__PP_P_ SH311978 -11.70 118.19 25 -1 -11.69 118.26 20 25 1002 -11.76 118.29 TC 27 1002 -11.73 118.18 1 26 -11.76 118.44 TC 25 1002 4 264
1978 SI WA 04:00:00 TS -11.73 118.19 25 1002 bom 244 244 P_____O__PP_P_ SH311978 -11.70 118.13 25 -1 -11.70 118.20 20 25 1002 2.00 -11.77 118.22 TC 28 1001 -11.74 118.11 1 26 -11.77 118.35 TC 25 1001 4 261
1978 SI WA 06:00:00 TS -11.75 118.06 259 259 O_____P__OP_O_ jtwc_sh SH311978 -11.70 118.00 25 -1 -11.77 118.07 20 25 1001 -11.80 118.10 TC 30 1001 -11.75 117.98 1 27 -11.80 118.20 TC 25 1001 4 260
1978 SI WA 07:00:00 TS -11.76 117.99 25 1001 bom 264 264 P_____O__PP_P_ SH311978 -11.71 117.93 25 -1 -11.80 118.00 20 25 1001 2.00 -11.80 118.03 TC 30 1000 -11.76 117.92 1 27 -11.80 118.13 TC 25 1000 4 263
1978 SI WA 09:00:00 TS -11.78 117.86 269 269 P_____P__PP_P_ SH311978 -11.74 117.80 27 -1 -11.81 117.87 20 25 1001 -11.80 117.90 TC 30 1000 -11.77 117.79 1 28 -11.80 117.99 TC 27 1000 4 264
1978 SI WA 10:00:00 TS -11.78 117.79 25 1001 bom 274 274 P_____O__PP_P_ SH311978 -11.76 117.73 28 -1 -11.80 117.80 20 25 1001 2.00 -11.80 117.83 TC 30 1000 -11.78 117.73 1 29 -11.80 117.93 TC 28 1000 4 264
1978 SI WA 12:00:00 TS -11.80 117.66 280 280 O_____P__OO_O_ jtwc_sh SH311978 -11.80 117.60 30 -1 -11.79 117.67 20 25 1000 -11.80 117.70 TC 30 1000 -11.80 117.60 1 30 -11.80 117.80 TC 30 1000 4 262
1978 SI WA 13:00:00 TS -11.81 117.59 25 1000 bom 286 286 P_____O__PP_P_ SH311978 -11.82 117.54 30 -1 -11.80 117.60 20 25 1000 2.00 -11.81 117.64 TC 30 999 -11.81 117.53 1 30 -11.81 117.73 TC 30 999 4 256
1978 SI WA 15:00:00 TS -11.85 117.46 293 293 P_____P__PP_P_ SH311978 -11.85 117.41 30 -1 -11.87 117.47 20 28 999 -11.84 117.51 TC 32 999 -11.84 117.38 1 31 -11.84 117.60 TC 32 999 4 254
1978 SI WA 16:00:00 TS -11.87 117.39 30 999 bom 308 308 P_____O__PP_P_ SH311978 -11.87 117.34 30 -1 -11.90 117.40 20 30 999 2.50 -11.86 117.44 TC 33 998 -11.85 117.31 1 31 -11.86 117.53 TC 33 998 4 256
1978 SI WA 18:00:00 TS -11.90 117.25 314 313 O_____P__OP_O_ jtwc_sh SH311978 -11.90 117.20 30 -1 -11.90 117.27 20 30 998 -11.90 117.30 TC 35 998 -11.88 117.16 1 32 -11.90 117.40 TC 35 998 4 258
1978 SI WA 19:00:00 TS -11.91 117.18 30 998 bom 313 313 P_____O__PP_P_ SH311978 -11.92 117.12 30 -1 -11.90 117.20 20 30 998 2.50 -11.92 117.22 TC 35 997 -11.90 117.08 1 32 -11.92 117.34 TC 35 997 5 256
1978 SI WA 21:00:00 TS -11.95 117.03 324 324 P_____P__PP_P_ SH311978 -11.95 116.95 32 -1 -11.97 117.07 20 33 996 -11.95 117.05 TC 37 996 -11.94 116.93 1 33 -11.95 117.21 TC 35 997 5 255
1978 SI WA 22:00:00 TS -11.97 116.95 35 996 bom 325 325 P_____O__PP_P_ SH311978 -11.97 116.86 33 -1 -12.00 117.00 30 35 996 3.00 -11.97 116.96 TC 38 996 -11.96 116.85 1 34 -11.97 117.14 TC 35 996 5 258
1978 SI WA 1978-04-07 00:00:00 TS -12.00 116.78 325 325 O_____P__OO_O_ jtwc_sh SH311978 -12.00 116.70 35 0 -12.00 116.80 30 38 995 -12.00 116.80 TC 40 995 -12.00 116.70 2 35 -12.00 117.00 TC 35 996 5 260
1978 SI WA 01:00:00 TS -12.01 116.71 40 995 bom 326 326 P_____O__PP_P_ SH311978 -12.01 116.63 35 0 -12.00 116.70 30 40 995 3.00 3.00 -12.01 116.73 TC 40 994 -12.02 116.62 2 35 -12.02 116.92 TC 35 995 4 256
1978 SI WA 03:00:00 TS -12.05 116.56 338 338 P_____P__PP_P_ SH311978 -12.04 116.50 35 0 -12.07 116.56 30 40 994 -12.04 116.60 TC 40 994 -12.06 116.47 2 36 -12.05 116.75 TC 37 994 4 254
1978 SI WA 04:00:00 TS -12.07 116.50 40 994 bom 340 340 P_____O__PP_P_ SH311978 -12.06 116.44 35 0 -12.10 116.50 30 40 994 3.00 -12.06 116.54 TC 40 993 -12.08 116.40 2 36 -12.07 116.66 TC 38 994 4 256
1978 SI WA 06:00:00 TS -12.10 116.35 342 342 O_____P__OP_O_ jtwc_sh SH311978 -12.10 116.30 35 0 -12.10 116.37 30 40 993 -12.10 116.40 TC 40 993 -12.13 116.25 2 37 -12.10 116.50 TC 40 993 4 256
1978 SI WA 07:00:00 TS -12.12 116.28 40 993 bom 344 344 P_____O__PP_P_ SH311978 -12.13 116.22 35 0 -12.10 116.30 30 40 993 3.00 -12.12 116.32 TC 40 992 -12.15 116.17 2 37 -12.11 116.43 TC 40 992 5 251
1978 SI WA 09:00:00 TS -12.18 116.13 359 359 P_____P__PP_P_ SH311978 -12.19 116.05 37 0 -12.16 116.17 30 43 992 -12.18 116.16 TC 42 992 -12.21 116.02 2 38 -12.13 116.30 TC 42 992 5 249
1978 SI WA 10:00:00 TS -12.21 116.05 45 992 bom 361 361 P_____O__PP_P_ SH311978 -12.23 115.96 38 0 -12.20 116.10 30 45 992 3.00 -12.22 116.07 TC 43 992 -12.24 115.95 2 39 -12.15 116.24 TC 43 992 5 248
1978 SI WA 12:00:00 TS -12.28 115.88 373 373 O_____P__OO_O_ jtwc_sh SH311978 -12.30 115.80 40 0 -12.26 115.91 30 45 992 -12.30 115.90 TC 45 992 -12.30 115.80 2 40 -12.20 116.10 TC 45 992 5 247
1978 SI WA 13:00:00 TS -12.31 115.80 45 992 bom 375 375 P_____O__PP_P_ SH311978 -12.33 115.73 40 0 -12.30 115.80 30 45 992 3.00 -12.35 115.81 TC 45 991 -12.33 115.72 2 40 -12.24 116.02 TC 45 991 5 242
1978 SI WA 15:00:00 TS -12.40 115.64 390 390 P_____P__PP_P_ SH311978 -12.39 115.60 42 0 -12.44 115.59 30 45 991 -12.45 115.64 TC 45 991 -12.40 115.57 2 41 -12.34 115.86 TC 45 991 5 240
1978 SI WA 16:00:00 TS -12.45 115.57 45 991 bom 390 390 P_____O__PP_P_ SH311978 -12.43 115.54 43 0 -12.50 115.50 30 45 991 3.00 -12.50 115.56 TC 45 990 -12.44 115.50 2 41 -12.40 115.77 TC 45 990 5 240
1978 SI WA 18:00:00 TS -12.53 115.42 406 406 O_____P__OP_O_ jtwc_sh SH311978 -12.50 115.40 45 0 -12.57 115.36 30 48 990 -12.60 115.40 TC 45 990 -12.52 115.35 2 42 -12.50 115.60 TC 45 990 5 241
1978 SI WA 19:00:00 TS -12.57 115.34 50 990 bom 420 420 P_____O__PP_P_ SH311978 -12.54 115.32 45 0 -12.60 115.30 30 50 990 3.50 -12.64 115.33 TC 45 990 -12.56 115.27 2 42 -12.54 115.51 TC 45 990 5 242
1978 SI WA 21:00:00 TS -12.65 115.19 434 434 P_____P__PP_P_ SH311978 -12.64 115.15 45 0 -12.67 115.17 30 50 990 -12.71 115.19 TC 45 990 -12.65 115.12 2 43 -12.60 115.34 TC 45 990 5 242
1978 SI WA 22:00:00 TS -12.69 115.11 50 990 bom 436 436 P_____O__PP_P_ SH311978 -12.69 115.06 45 0 -12.70 115.10 30 50 990 3.50 -12.74 115.13 TC 45 990 -12.70 115.05 2 44 -12.63 115.26 TC 45 990 5 240
1978 SI WA 1978-04-08 00:00:00 TS -12.78 114.96 448 448 O_____P__OO_O_ jtwc_sh SH311978 -12.80 114.90 45 0 -12.77 114.97 30 50 990 -12.80 115.00 TC 45 990 -12.80 114.90 2 45 -12.70 115.10 TC 45 990 5 240
1978 SI WA 01:00:00 TS -12.82 114.89 50 990 bom 448 448 P_____O__PP_P_ SH311978 -12.85 114.83 45 0 -12.80 114.90 30 50 990 3.50 3.50 -12.83 114.94 TC 45 990 -12.85 114.82 2 45 -12.74 115.03 TC 45 990 5 238
1978 SI WA 03:00:00 TS -12.90 114.75 459 459 P_____P__PP_P_ SH311978 -12.94 114.70 45 0 -12.86 114.76 30 50 990 -12.88 114.81 TC 45 990 -12.95 114.65 2 45 -12.83 114.89 TC 45 990 5 237
1978 SI WA 04:00:00 TS -12.95 114.69 50 990 bom 459 459 P_____O__PP_P_ SH311978 -12.99 114.64 45 0 -12.90 114.70 30 50 990 3.50 -12.92 114.74 TC 45 990 -13.01 114.57 2 45 -12.89 114.83 TC 45 990 5 232
1978 SI WA 06:00:00 TS -13.05 114.55 50 bom 481 481 O_____I__IP_O_ jtwc_sh SH311978 -13.10 114.50 45 0 -13.00 114.60 30 50 990 3.50 -13.00 114.60 TC 45 990 -13.12 114.41 2 45 -13.00 114.70 TC 45 990 5 231
1978 SI WA 07:00:00 TS -13.12 114.47 50 990 bom 481 481 P_____O__PP_P_ SH311978 -13.16 114.42 45 0 -13.10 114.50 30 50 990 3.50 -13.06 114.52 TC 45 990 -13.18 114.34 2 45 -13.06 114.63 TC 45 990 6 231
1978 SI WA 09:00:00 TS -13.25 114.30 493 493 P_____P__PP_P_ SH311978 -13.29 114.24 45 0 -13.24 114.29 30 50 990 -13.19 114.35 TC 45 990 -13.30 114.19 2 45 -13.19 114.50 TC 45 990 6 231
1978 SI WA 10:00:00 TS -13.32 114.22 50 990 bom 505 505 P_____O__PP_P_ SH311978 -13.35 114.16 45 0 -13.30 114.20 30 50 990 3.50 -13.26 114.26 TC 45 990 -13.37 114.12 2 45 -13.26 114.43 TC 45 990 6 227
1978 SI WA 12:00:00 TS -13.46 114.08 529 529 O_____P__OO_O_ jtwc_sh SH311978 -13.50 114.00 45 0 -13.43 114.06 30 50 990 -13.40 114.10 TC 45 990 -13.50 114.00 2 45 -13.40 114.30 TC 45 990 6 224
1978 SI WA 13:00:00 TS -13.53 114.01 50 990 bom 530 530 P_____O__PP_P_ SH311978 -13.58 113.93 45 0 -13.50 114.00 30 50 990 3.50 -13.46 114.02 TC 45 990 -13.57 113.94 2 45 -13.47 114.23 TC 45 990 6 221
1978 SI WA 15:00:00 TS -13.68 113.88 554 554 P_____P__PP_P_ SH311978 -13.75 113.82 45 0 -13.63 113.86 30 50 990 -13.59 113.87 TC 45 990 -13.73 113.84 2 45 -13.60 114.09 TC 45 990 6 218
1978 SI WA 16:00:00 TS -13.75 113.83 50 990 bom 566 566 P_____O__PP_P_ SH311978 -13.84 113.77 45 0 -13.70 113.80 30 50 990 3.50 -13.66 113.80 TC 45 990 -13.81 113.79 2 45 -13.67 114.02 TC 45 990 5 212
1978 SI WA 18:00:00 TS -13.90 113.74 579 579 O_____P__OP_O_ jtwc_sh SH311978 -14.00 113.70 45 0 -13.83 113.73 30 50 990 -13.80 113.70 TC 45 990 -13.97 113.71 2 45 -13.80 113.90 TC 45 990 5 208
1978 SI WA 19:00:00 TS -13.98 113.70 50 990 bom 590 590 P_____O__PP_P_ SH311978 -14.07 113.67 45 0 -13.90 113.70 30 50 990 3.50 -13.88 113.66 TC 45 990 -14.05 113.68 2 45 -13.87 113.85 TC 45 990 5 201
1978 SI WA 21:00:00 TS -14.13 113.64 603 603 P_____P__PP_P_ SH311978 -14.21 113.62 45 0 -14.10 113.63 30 50 990 -14.06 113.61 TC 45 990 -14.20 113.63 2 45 -14.01 113.76 TC 45 990 5 199
1978 SI WA 22:00:00 TS -14.21 113.63 50 990 bom 614 614 P_____O__PP_P_ SH311978 -14.28 113.61 45 0 -14.20 113.60 30 50 990 3.50 -14.14 113.60 TC 45 990 -14.27 113.61 2 45 -14.07 113.73 TC 45 990 4 193
1978 SI WA 1978-04-09 00:00:00 TS -14.34 113.62 625 625 O_____P__OO_O_ jtwc_sh SH311978 -14.40 113.60 45 0 -14.35 113.59 30 50 990 -14.30 113.60 TC 45 990 -14.40 113.60 2 45 -14.20 113.70 TC 45 990 4 0
1978 SI WA 01:00:00 TS -14.40 113.62 50 990 bom 636 636 P_____O__PP_P_ SH311978 -14.46 113.60 45 0 -14.40 113.60 30 50 990 3.50 3.50 -14.36 113.60 TC 45 990 -14.45 113.60 2 45 -14.26 113.70 TC 45 990 3 0
1978 SI WA 03:00:00 TS -14.50 113.64 647 647 P_____P__PP_P_ SH311978 -14.57 113.63 45 0 -14.47 113.59 30 50 990 -14.47 113.63 TC 45 990 -14.55 113.61 2 45 -14.36 113.73 TC 45 990 3 168
1978 SI WA 04:00:00 TS -14.54 113.65 50 990 bom 645 645 P_____O__PP_P_ SH311978 -14.62 113.65 45 0 -14.50 113.60 30 50 990 3.50 -14.52 113.65 TC 45 990 -14.59 113.62 2 45 -14.41 113.75 TC 45 990 3 152
1978 SI WA 06:00:00 TS -14.62 113.70 656 656 O_____P__OP_O_ jtwc_sh SH311978 -14.70 113.70 45 0 -14.57 113.66 30 50 990 -14.60 113.70 TC 45 990 -14.67 113.67 2 45 -14.50 113.80 TC 45 990 3 145
1978 SI WA 07:00:00 TS -14.66 113.73 50 990 bom 667 666 P_____O__PP_P_ SH311978 -14.73 113.73 45 0 -14.60 113.70 30 50 990 3.50 -14.64 113.72 TC 45 990 -14.70 113.70 2 45 -14.54 113.81 TC 45 990 2 139
1978 SI WA 09:00:00 TS -14.72 113.79 666 666 P_____P__PP_P_ SH311978 -14.77 113.79 45 0 -14.67 113.77 30 50 990 -14.72 113.78 TC 45 990 -14.75 113.77 2 45 -14.61 113.84 TC 45 990 2 134
1978 SI WA 10:00:00 TS -14.74 113.82 50 990 bom 666 666 P_____O__PP_P_ SH311978 -14.79 113.82 45 0 -14.70 113.80 30 50 990 3.50 -14.75 113.82 TC 45 990 -14.77 113.81 2 45 -14.65 113.85 TC 45 990 2 120
1978 SI WA 12:00:00 TS -14.78 113.89 676 676 O_____P__OO_O_ jtwc_sh SH311978 -14.80 113.90 45 0 -14.77 113.86 30 50 990 -14.80 113.90 TC 45 990 -14.80 113.90 2 45 -14.70 113.90 TC 45 990 2 115
1978 SI WA 13:00:00 TS -14.79 113.93 50 990 bom 676 675 P_____O__PP_P_ SH311978 -14.81 113.94 45 0 -14.80 113.90 30 50 990 3.50 -14.81 113.94 TC 45 990 -14.81 113.94 2 45 -14.72 113.94 TC 45 990 3 99
1978 SI WA 15:00:00 TS -14.80 114.04 675 674 P_____P__PP_P_ SH311978 -14.81 114.04 45 0 -14.81 114.04 30 50 990 -14.82 114.04 TC 45 990 -14.81 114.04 2 45 -14.76 114.03 TC 45 990 3 93
1978 SI WA 16:00:00 TS -14.80 114.09 50 990 bom 674 673 P_____O__PP_P_ SH311978 -14.81 114.09 45 0 -14.80 114.10 30 50 990 3.50 -14.81 114.09 TC 45 990 -14.80 114.09 2 45 -14.78 114.08 TC 45 990 3 89
1978 SI WA 18:00:00 TS -14.80 114.19 673 673 O_____P__OP_O_ jtwc_sh SH311978 -14.80 114.20 45 0 -14.80 114.16 30 50 990 -14.80 114.20 TC 45 990 -14.79 114.21 2 45 -14.80 114.20 TC 45 990 3 88
1978 SI WA 19:00:00 TS -14.80 114.25 50 990 bom 673 672 P_____O__PP_P_ SH311978 -14.79 114.26 45 0 -14.80 114.20 30 50 990 3.50 -14.79 114.24 TC 45 990 -14.79 114.27 2 45 -14.80 114.26 TC 45 990 3 87
1978 SI WA 21:00:00 TS -14.79 114.37 672 672 P_____P__PP_P_ SH311978 -14.78 114.39 45 0 -14.80 114.33 30 50 990 -14.78 114.34 TC 45 990 -14.78 114.39 2 45 -14.80 114.39 TC 45 990 4 88
1978 SI WA 22:00:00 TS -14.79 114.44 50 990 bom 672 671 P_____O__PP_P_ SH311978 -14.78 114.45 45 0 -14.80 114.40 30 50 990 3.50 -14.78 114.38 TC 45 990 -14.78 114.46 2 45 -14.80 114.46 TC 45 990 4 93
1978 SI WA 1978-04-10 00:00:00 TS -14.80 114.57 671 671 O_____P__OO_O_ jtwc_sh SH311978 -14.80 114.60 45 0 -14.79 114.53 30 50 990 -14.80 114.50 TC 45 990 -14.80 114.60 2 45 -14.80 114.60 TC 45 990 4 97
1978 SI WA 01:00:00 TS -14.81 114.64 50 990 bom 671 668 P_____O__PP_P_ SH311978 -14.82 114.68 45 0 -14.80 114.60 30 50 990 3.50 3.50 -14.82 114.57 TC 45 990 -14.83 114.67 2 44 -14.81 114.66 TC 45 990 5 108
1978 SI WA 03:00:00 TS -14.87 114.80 668 665 P_____P__PP_P_ SH311978 -14.88 114.85 45 0 -14.86 114.73 30 50 990 -14.88 114.74 TC 45 990 -14.89 114.82 2 43 -14.83 114.79 TC 45 990 5 112
1978 SI WA 04:00:00 TS -14.90 114.88 50 990 bom 665 651 P_____O__PP_P_ SH311978 -14.91 114.94 45 0 -14.90 114.80 30 50 990 3.50 -14.91 114.83 TC 45 990 -14.93 114.89 2 43 -14.85 114.86 TC 45 990 5 115
1978 SI WA 06:00:00 TS -14.98 115.04 651 649 O_____P__OP_O_ jtwc_sh SH311978 -15.00 115.10 45 0 -14.96 115.00 30 50 990 -15.00 115.00 TC 45 990 -15.02 115.05 2 42 -14.90 115.00 TC 45 990 5 117
1978 SI WA 07:00:00 TS -15.02 115.12 50 990 bom 649 632 P_____O__PP_P_ SH311978 -15.05 115.17 44 0 -15.00 115.10 30 50 990 3.50 -15.05 115.07 TC 45 990 -15.07 115.13 2 42 -14.94 115.08 TC 45 990 5 125
1978 SI WA 09:00:00 TS -15.13 115.27 632 622 P_____P__PP_P_ SH311978 -15.15 115.31 42 0 -15.14 115.24 30 50 990 -15.15 115.21 TC 45 991 -15.16 115.28 2 41 -15.04 115.25 TC 45 990 5 128
1978 SI WA 10:00:00 TS -15.19 115.33 50 991 bom 622 606 P_____O__PP_P_ SH311978 -15.20 115.37 41 0 -15.20 115.30 30 50 991 3.50 -15.20 115.27 TC 45 991 -15.21 115.36 2 40 -15.10 115.34 TC 45 990 5 127
1978 SI WA 12:00:00 TS -15.28 115.47 606 606 O_____P__OO_O_ jtwc_sh SH311978 -15.30 115.50 40 0 -15.27 115.43 30 46 991 -15.30 115.40 TC 45 992 -15.30 115.50 2 40 -15.20 115.50 TC 45 991 5 123
1978 SI WA 13:00:00 TS -15.32 115.54 45 992 bom 606 591 P_____O__PP_P_ SH311978 -15.34 115.57 40 0 -15.30 115.50 30 45 992 3.00 -15.34 115.47 TC 44 992 -15.34 115.57 2 39 -15.24 115.58 TC 44 991 4 118
1978 SI WA 15:00:00 TS -15.39 115.68 591 591 P_____P__PP_P_ SH311978 -15.41 115.71 40 0 -15.37 115.63 30 45 992 -15.41 115.60 TC 42 993 -15.42 115.69 2 38 -15.31 115.72 TC 42 992 4 118
1978 SI WA 16:00:00 TS -15.42 115.74 45 993 bom 591 576 P_____O__PP_P_ SH311978 -15.44 115.77 40 0 -15.40 115.70 30 45 993 3.00 -15.44 115.67 TC 41 993 -15.45 115.75 2 38 -15.34 115.78 TC 41 992 4 117
1978 SI WA 18:00:00 TS -15.48 115.87 576 576 O_____P__OP_O_ jtwc_sh SH311978 -15.50 115.90 40 0 -15.47 115.83 30 45 993 -15.50 115.80 TC 40 994 -15.52 115.87 2 37 -15.40 115.90 TC 40 993 4 119
1978 SI WA 19:00:00 TS -15.52 115.93 45 994 bom 576 564 P_____O__PP_P_ SH311978 -15.54 115.96 39 0 -15.50 115.90 30 45 994 3.00 -15.54 115.87 TC 40 994 -15.56 115.93 2 37 -15.43 115.96 TC 40 993 4 121
1978 SI WA 21:00:00 TS -15.58 116.04 564 563 P_____P__PP_P_ SH311978 -15.61 116.06 37 0 -15.57 116.04 30 41 994 -15.61 116.01 TC 40 994 -15.62 116.04 2 36 -15.50 116.06 TC 40 993 4 121
1978 SI WA 22:00:00 TS -15.62 116.10 40 995 bom 563 550 P_____O__PP_P_ SH311978 -15.64 116.11 36 0 -15.60 116.10 30 40 995 3.00 -15.64 116.07 TC 40 994 -15.65 116.09 2 35 -15.53 116.11 TC 40 993 3 123
1978 SI WA 1978-04-11 00:00:00 TS -15.68 116.19 550 550 O_____P__OO_O_ jtwc_sh SH311978 -15.70 116.20 35 0 -15.67 116.16 30 40 995 -15.70 116.20 TC 40 995 -15.70 116.20 2 35 -15.60 116.20 TC 40 994 3 121
1978 SI WA 01:00:00 TS -15.70 116.24 40 995 bom 550 538 P_____O__PP_P_ SH311978 -15.72 116.25 34 0 -15.70 116.20 30 40 995 3.00 3.00 -15.72 116.26 TC 39 995 -15.72 116.25 2 34 -15.64 116.25 TC 40 994 3 117
1978 SI WA 03:00:00 TS -15.75 116.35 538 537 P_____P__PP_P_ SH311978 -15.76 116.35 32 -1 -15.77 116.34 30 36 995 -15.76 116.36 TC 37 995 -15.77 116.35 2 33 -15.71 116.35 TC 40 994 3 114
1978 SI WA 04:00:00 TS -15.77 116.40 35 996 bom 537 537 P_____O__PP_P_ SH311978 -15.77 116.40 31 -1 -15.80 116.40 30 35 996 3.00 -15.77 116.41 TC 36 995 -15.79 116.40 2 33 -15.74 116.40 TC 40 994 3 110
1978 SI WA 06:00:00 TS -15.80 116.49 537 537 O_____P__OP_O_ jtwc_sh SH311978 -15.80 116.50 30 -1 -15.81 116.46 30 35 996 -15.80 116.50 TC 35 996 -15.82 116.50 2 32 -15.80 116.50 TC 40 995 3 110
1978 SI WA 07:00:00 TS -15.82 116.54 35 996 bom 537 537 P_____O__PP_P_ SH311978 -15.82 116.55 30 -1 -15.80 116.50 30 35 996 3.00 -15.82 116.55 TC 35 996 -15.84 116.55 2 32 -15.82 116.55 TC 39 995 3 107
1978 SI WA 09:00:00 TS -15.85 116.64 537 524 P_____P__PP_P_ SH311978 -15.86 116.65 30 -1 -15.79 116.64 30 31 996 -15.86 116.64 TC 35 996 -15.87 116.65 2 31 -15.86 116.64 TC 37 995 3 106
1978 SI WA 10:00:00 TS -15.86 116.70 30 997 bom 524 521 P_____O__PP_P_ SH311978 -15.87 116.70 30 -1 -15.80 116.70 20 30 997 2.50 -15.87 116.69 TC 35 996 -15.88 116.70 2 30 -15.88 116.69 TC 36 995 3 108
1978 SI WA 12:00:00 TS -15.89 116.79 521 521 O_____P__OO_O_ jtwc_sh SH311978 -15.90 116.80 30 -1 -15.87 116.76 20 30 997 -15.90 116.80 TC 35 997 -15.90 116.80 1 30 -15.90 116.80 TC 35 996 3 105
1978 SI WA 13:00:00 TS -15.90 116.85 30 997 bom 521 516 P_____O__PP_P_ SH311978 -15.90 116.85 30 -1 -15.90 116.80 20 30 997 2.50 -15.90 116.87 TC 34 997 -15.90 116.87 1 30 -15.90 116.86 TC 35 996 4 92
1978 SI WA 15:00:00 TS -15.90 116.98 516 516 P_____P__PP_P_ SH311978 -15.90 116.94 30 -1 -15.91 117.00 20 30 997 -15.90 117.01 TC 32 998 -15.91 117.01 1 30 -15.90 117.00 TC 35 997 4 89
1978 SI WA 16:00:00 TS -15.90 117.05 30 998 bom 514 511 P_____O__PP_P_ SH311978 -15.90 116.99 30 -1 -15.90 117.10 20 30 998 2.50 -15.90 117.08 TC 31 998 -15.91 117.08 1 30 -15.90 117.07 TC 35 997 3 90
1978 SI WA 18:00:00 TS -15.90 117.17 511 511 O_____P__OP_O_ jtwc_sh SH311978 -15.90 117.10 30 -1 -15.90 117.18 20 30 998 -15.90 117.20 TC 30 999 -15.91 117.22 1 30 -15.90 117.20 TC 35 998 3 92
1978 SI WA 19:00:00 TS -15.91 117.22 30 999 bom 511 507 P_____O__PP_P_ SH311978 -15.91 117.17 30 -1 -15.90 117.20 20 30 999 2.50 -15.90 117.24 TC 30 999 -15.92 117.28 1 30 -15.90 117.26 TC 34 998 3 96
1978 SI WA 21:00:00 TS -15.92 117.33 507 503 P_____P__PP_P_ SH311978 -15.93 117.32 30 -1 -15.89 117.26 20 30 999 -15.91 117.31 TC 30 1000 -15.94 117.39 1 30 -15.92 117.37 TC 32 999 3 101
1978 SI WA 22:00:00 TS -15.93 117.38 30 1000 bom 503 488 P_____O__PP_P_ SH311978 -15.95 117.39 30 -1 -15.90 117.30 20 30 1000 2.50 -15.93 117.34 TC 30 1000 -15.95 117.44 1 30 -15.94 117.41 TC 31 999 3 118
1978 SI WA 1978-04-12 00:00:00 TS -15.99 117.47 488 488 O_____P__OO_O_ jtwc_sh SH311978 -16.00 117.50 30 -1 -15.95 117.42 20 30 1000 -16.00 117.40 TC 30 1001 -16.00 117.50 1 30 -16.00 117.50 TC 30 1000 3 128
1978 SI WA 01:00:00 TS -16.04 117.52 30 1001 bom 488 474 P_____O__PP_P_ SH311978 -16.04 117.53 30 -1 -16.00 117.50 20 30 1001 2.50 2.50 -16.07 117.46 TC 30 1001 -16.04 117.52 1 30 -16.05 117.55 TC 29 1000 4 143
1978 SI WA 03:00:00 TS -16.16 117.60 464 464 P_____P__PP_P_ SH311978 -16.13 117.55 30 -1 -16.11 117.73 20 30 1001 -16.24 117.59 TC 30 1001 -16.15 117.54 1 30 -16.18 117.64 TC 27 1000 4 150
1978 SI WA 04:00:00 TS -16.23 117.62 30 1001 bom 464 443 P_____O__PP_P_ SH311978 -16.18 117.55 30 -1 -16.20 117.80 20 30 1001 2.50 -16.34 117.65 TC 30 1001 -16.21 117.53 1 30 -16.26 117.67 TC 26 1000 5 0
1978 SI WA 06:00:00 TS -16.39 117.61 443 443 O_____P__OP_O_ jtwc_sh SH311978 -16.30 117.50 30 -1 -16.48 117.76 20 30 1001 -16.50 117.70 TC 30 1001 -16.33 117.50 1 30 -16.40 117.70 TC 25 1001 5 189
1978 SI WA 07:00:00 TS -16.46 117.58 30 1001 bom 432 426 P_____O__PP_P_ SH311978 -16.37 117.47 30 -1 -16.60 117.70 20 30 1001 2.50 -16.56 117.68 TC 29 1001 -16.40 117.47 1 30 -16.46 117.70 TC 25 1001 4 209
1978 SI WA 09:00:00 TS -16.58 117.50 426 426 P_____P__PP_P_ SH311978 -16.51 117.39 30 -1 -16.69 117.58 20 26 1001 -16.64 117.58 TC 27 1001 -16.53 117.39 1 30 -16.58 117.67 TC 25 1001 4 221
1978 SI WA 10:00:00 TS -16.62 117.44 25 1002 bom 430 420 P_____O__PP_P_ SH311978 -16.58 117.33 30 -1 -16.70 117.50 20 25 1002 2.00 -16.67 117.50 TC 26 1001 -16.59 117.33 1 30 -16.63 117.63 TC 25 1001 5 239
1978 SI WA 12:00:00 TS -16.70 117.28 422 422 O_____P__OO_O_ jtwc_sh SH311978 -16.70 117.20 30 -1 -16.71 117.31 20 25 1002 -16.70 117.30 TC 25 1002 -16.70 117.20 1 30 -16.70 117.50 TC 25 1001 5 246
1978 SI WA 13:00:00 TS -16.73 117.20 25 1002 bom 424 416 P_____O__PP_P_ SH311978 -16.75 117.14 30 -1 -16.70 117.20 20 25 1002 2.00 -16.71 117.20 TC 25 1002 -16.75 117.12 1 29 -16.71 117.41 TC 25 1001 5 257
1978 SI WA 15:00:00 TS -16.76 117.01 419 419 P_____P__PP_P_ SH311978 -16.82 116.99 30 -1 -16.70 117.01 20 25 1002 -16.70 116.96 TC 25 1002 -16.82 116.94 1 28 -16.71 117.18 TC 25 1001 6 260
1978 SI WA 16:00:00 TS -16.78 116.91 25 1002 bom 422 422 P_____O__PP_P_ SH311978 -16.85 116.90 30 -1 -16.70 116.90 20 25 1002 2.00 -16.70 116.84 TC 25 1002 -16.85 116.84 1 28 -16.70 117.05 TC 25 1001 6 263
1978 SI WA 18:00:00 TS -16.80 116.68 425 425 O_____P__OP_O_ jtwc_sh SH311978 -16.90 116.70 30 -1 -16.69 116.63 20 25 1002 -16.70 116.60 TC 25 1003 -16.91 116.63 1 27 -16.70 116.80 TC 25 1002 7 263
1978 SI WA 19:00:00 TS -16.82 116.56 25 1003 bom 425 425 P_____O__PP_P_ SH311978 -16.92 116.58 29 -1 -16.70 116.50 20 25 1003 2.00 -16.72 116.50 TC 24 1003 -16.93 116.51 1 27 -16.72 116.70 TC 25 1002 6 261
1978 SI WA 21:00:00 TS -16.85 116.34 416 416 P_____P__PP_P_ SH311978 -16.96 116.33 27 -1 -16.75 116.29 20 25 1003 -16.78 116.31 TC 22 1003 -16.96 116.27 1 26 -16.78 116.51 TC 25 1002 6 261
1978 SI WA 22:00:00 TS -16.87 116.24 25 1003 bom 417 417 P_____O__PP_P_ SH311978 -16.97 116.19 26 -1 -16.80 116.20 20 25 1003 2.00 -16.81 116.21 TC 21 1003 -16.97 116.15 1 25 -16.82 116.41 TC 25 1002 6 255
1978 SI WA 1978-04-13 00:00:00 TS -16.93 116.04 420 409 O_____P__OO_O_ jtwc_sh SH311978 -17.00 115.90 25 -1 -16.93 116.01 20 25 1003 -16.90 116.00 TC 20 1004 -17.00 115.90 1 25 -16.90 116.20 TC 25 1003 6 251
1978 SI WA 01:00:00 TS -16.96 115.96 25 1004 bom 409 405 ______O__P__P_ SH311978 -1 -17.00 115.90 20 25 1004 1.50 -16.95 115.88 TC 20 1004 1 -16.93 116.08 TC 24 1003 7 246
1978 SI WA 03:00:00 TS -17.07 115.70 405 405 ______P__P__P_ SH311978 -1 -17.15 115.65 20 25 1004 -17.06 115.63 TC 20 1004 1 -17.00 115.83 TC 22 1003 8 248
1978 SI WA 04:00:00 TS -17.11 115.56 25 1004 bom 408 404 ______O__P__P_ SH311978 -1 -17.20 115.50 20 25 1004 1.50 -17.11 115.49 TC 20 1004 1 -17.03 115.69 TC 21 1003 9 257
1978 SI WA 06:00:00 TS -17.17 115.26 407 407 ______P__O__O_ -1 -17.20 115.17 20 25 1004 -17.20 115.20 TC 20 1004 1 -17.10 115.40 TC 20 1004 9 261
1978 SI WA 07:00:00 TS -17.19 115.10 25 1004 bom 415 415 ______O__P__P_ -1 -17.20 115.00 20 25 1004 1.50 -17.23 115.04 TC 20 1004 1 -17.14 115.24 TC 20 1004 10 260
1978 SI WA 09:00:00 TS -17.25 114.77 429 424 ______P__P__P_ -1 -17.27 114.67 20 25 1004 -17.26 114.71 TC 20 1004 1 -17.21 114.92 TC 20 1004 10 260
1978 SI WA 10:00:00 TS -17.27 114.60 25 1004 bom 430 430 ______O__P__P_ -1 -17.30 114.50 20 25 1004 1.50 -17.28 114.54 TC 20 1004 1 -17.24 114.74 TC 20 1004 10 264
1978 SI WA 12:00:00 TS -17.30 114.26 447 447 ______P__O__O_ -1 -17.30 114.17 20 25 1004 -17.30 114.20 TC 20 1004 -17.30 114.40 TC 20 1004 10 265
1978 SI WA 13:00:00 TS -17.31 114.09 25 1004 bom 459 459 ______O__P__P_ -1 -17.30 114.00 20 25 1004 1.50 -17.32 114.04 TC 20 1004 -17.32 114.24 TC 20 1004 9 265
1978 SI WA 15:00:00 TS -17.34 113.77 475 471 ______P__P__P_ -1 -17.32 113.68 20 23 1004 -17.35 113.71 TC 20 1004 -17.36 113.91 TC 20 1004 10 264
1978 SI WA 18:00:00 TS -17.39 113.26 495 495 ______P__O__O_ -1 -17.38 113.18 20 20 1004 -17.40 113.20 TC 20 1005 -17.40 113.40 TC 20 1004 10 264
1978 SI WA 19:00:00 TS -17.41 113.07 20 1005 bom 507 507 ______O__P__P_ -1 -17.40 113.00 20 20 1005 1.00 -17.42 113.01 TC 19 1005 -17.42 113.22 TC 20 1004 11 265
1978 SI WA 21:00:00 TS -17.44 112.69 521 513 ______P__P__P_ -1 -17.44 112.62 20 20 1005 -17.45 112.62 TC 17 1005 -17.45 112.86 TC 20 1004 11 265
1978 SI WA 1978-04-14 00:00:00 TS -17.49 112.08 530 530 ______P__O__O_ -1 -17.49 112.01 20 20 1005 -17.50 112.00 TC 15 1006 -17.50 112.30 TC 20 1005 13 266
1978 SI WA 01:00:00 NR -17.50 111.80 20 1006 bom 543 ______O_______ -1 -17.50 111.80 20 20 1006 1.00 TC TC 16 268